Skyland, Alabama
Current Conditions -  °F | °C
As of 4:53 PM on Saturday 25 Oct 2014 (Local Time) from KTCL Reporting Station
Clear Clear  
Wind Chill: 78°   Ceiling: Unl
Heat Index: 79°   Visibility: 10mi
Dew Point: 59°   Wind: 5mph
Humidity: 52%   Direction: 290°WNW
Pressure: 30.04"   Gusts: NA
Location:  33.1197°N, 87.5295°W
Report Text: KTCL 252153Z 29004KT 10SM CLR 26/15 A3004 RMK AO2 SLP171 T02560150
Loading
Personal Weather Stations






























Interactive Weather Map
Tropical Storm Tracking
New forecast layout! Learn more

10-Day Weather Forecast

Advertisements
Track Severe Weather on mobile